createdAt,value
2016-05-11T00:00:32.809Z,56.6
2016-05-11T00:01:32.686Z,56.32
2016-05-11T00:02:32.830Z,56.41
2016-05-11T00:03:33.333Z,56.51
2016-05-11T00:04:32.772Z,56.41
2016-05-11T00:05:33.259Z,56.41
2016-05-11T00:06:33.700Z,57.09
2016-05-11T00:07:32.452Z,56.99
2016-05-11T00:08:32.440Z,56.51
2016-05-11T00:09:33.270Z,56.41
2016-05-11T00:10:32.382Z,56.51
2016-05-11T00:11:32.386Z,56.99
2016-05-11T00:12:32.560Z,56.51
2016-05-11T00:13:32.327Z,56.7
2016-05-11T00:14:32.316Z,56.6
2016-05-11T00:15:32.208Z,56.12
2016-05-11T00:16:32.274Z,56.41
2016-05-11T00:17:32.463Z,56.51
2016-05-11T00:18:32.638Z,56.8
2016-05-11T00:19:32.204Z,56.7
2016-05-11T00:20:32.206Z,56.6
2016-05-11T00:21:32.287Z,56.7
2016-05-11T00:22:32.243Z,56.8
2016-05-11T00:23:32.432Z,56.99
2016-05-11T00:24:32.358Z,56.9
2016-05-11T00:25:32.235Z,56.99
2016-05-11T00:26:33.176Z,57.18
2016-05-11T00:27:32.069Z,57.18
2016-05-11T00:28:31.900Z,56.99
2016-05-11T00:29:32.153Z,57.18
2016-05-11T00:30:32.780Z,57.18
2016-05-11T00:31:32.111Z,56.96
2016-05-11T00:32:32.020Z,57.09
2016-05-11T00:33:31.960Z,56.87
2016-05-11T00:34:31.900Z,57.67
2016-05-11T00:35:32.090Z,57.67
2016-05-11T00:36:31.890Z,57.54
2016-05-11T00:37:32.408Z,56.38
2016-05-11T00:38:31.864Z,57.35
2016-05-11T00:39:31.914Z,57.35
2016-05-11T00:40:31.853Z,57.47
2016-05-11T00:41:32.060Z,57.47
2016-05-11T00:42:32.030Z,57.47
2016-05-11T00:43:31.847Z,57.25
2016-05-11T00:44:31.755Z,57.06
2016-05-11T00:45:31.852Z,57.37
2016-05-11T00:46:31.714Z,57.47
2016-05-11T00:47:31.701Z,57.28
2016-05-11T00:48:31.688Z,57.47
2016-05-11T00:49:31.644Z,57.54
2016-05-11T00:50:31.646Z,57.15
2016-05-11T00:51:32.118Z,57.28
2016-05-11T00:52:31.589Z,57.54
2016-05-11T00:53:31.576Z,58.05
2016-05-11T00:54:32.313Z,57.54
2016-05-11T00:55:31.551Z,57.92
2016-05-11T00:56:31.521Z,57.92
2016-05-11T00:57:31.509Z,57.83
2016-05-11T00:58:31.465Z,57.83
2016-05-11T00:59:31.654Z,57.73
2016-05-11T01:00:31.611Z,57.83
2016-05-11T01:01:31.488Z,57.64
2016-05-11T01:02:31.381Z,57.83
2016-05-11T01:03:31.212Z,57.92
2016-05-11T01:04:31.418Z,57.54
2016-05-11T01:05:31.375Z,57.83
2016-05-11T01:06:31.642Z,57.54
2016-05-11T01:07:31.630Z,57.73
2016-05-11T01:08:31.288Z,57.73
2016-05-11T01:09:31.275Z,57.54
2016-05-11T01:10:31.934Z,57.45
2016-05-11T01:11:31.891Z,57.54
2016-05-11T01:12:31.237Z,57.73
2016-05-11T01:13:31.224Z,57.54
2016-05-11T01:14:31.352Z,57.64
2016-05-11T01:15:31.432Z,57.64
2016-05-11T01:16:31.139Z,57.73
2016-05-11T01:17:31.312Z,57.64
2016-05-11T01:18:31.096Z,57.64
2016-05-11T01:19:31.787Z,57.73
2016-05-11T01:20:31.055Z,57.54
2016-05-11T01:21:31.293Z,57.64
2016-05-11T01:22:31.060Z,57.83
2016-05-11T01:23:31.079Z,57.83
2016-05-11T01:24:31.690Z,57.92
2016-05-11T01:25:30.960Z,58.12
2016-05-11T01:26:30.931Z,57.92
2016-05-11T01:27:30.918Z,57.83
2016-05-11T01:28:30.905Z,57.83
2016-05-11T01:29:30.876Z,58.12
2016-05-11T01:30:30.909Z,58.22
2016-05-11T01:31:30.850Z,58.6
2016-05-11T01:32:31.026Z,58.5
2016-05-11T01:33:30.793Z,58.5
2016-05-11T01:34:30.953Z,58.22
2016-05-11T01:35:30.767Z,58.31
2016-05-11T01:36:30.926Z,58.22
2016-05-11T01:37:30.756Z,58.12
2016-05-11T01:38:30.917Z,58.12
2016-05-11T01:39:30.747Z,58.12
2016-05-11T01:40:30.858Z,58.12
2016-05-11T01:41:30.643Z,58.22
2016-05-11T01:42:30.942Z,57.92
2016-05-11T01:43:30.602Z,58.12
2016-05-11T01:44:30.448Z,58.12
2016-05-11T01:45:31.075Z,58.31
2016-05-11T01:46:30.562Z,58.7
2016-05-11T01:47:30.533Z,58.22
2016-05-11T01:48:30.381Z,58.5
2016-05-11T01:49:30.508Z,58.67
2016-05-11T01:50:30.496Z,58.67
2016-05-11T01:51:30.482Z,58.76
2016-05-11T01:52:30.297Z,58.67
2016-05-11T01:53:30.441Z,58.37
2016-05-11T01:54:30.396Z,58.67
2016-05-11T01:55:30.368Z,58.57
2016-05-11T01:56:30.371Z,58.57
2016-05-11T01:57:30.343Z,58.47
2016-05-11T01:58:30.345Z,58.37
2016-05-11T01:59:30.316Z,58.37
2016-05-11T02:00:30.365Z,58.37
2016-05-11T02:01:31.165Z,58.47
2016-05-11T02:02:30.245Z,58.47
2016-05-11T02:03:30.452Z,58.67
2016-05-11T02:04:30.799Z,58.95
2016-05-11T02:05:30.364Z,59.05
2016-05-11T02:06:30.209Z,58.67
2016-05-11T02:07:30.666Z,59.05
2016-05-11T02:08:30.497Z,58.76
2016-05-11T02:09:30.108Z,58.67
2016-05-11T02:10:30.095Z,59.05
2016-05-11T02:11:30.614Z,59.05
2016-05-11T02:12:30.101Z,59.34
2016-05-11T02:13:30.041Z,59.34
2016-05-11T02:14:30.028Z,59.53
2016-05-11T02:15:30.172Z,59.53
2016-05-11T02:16:29.972Z,59.44
2016-05-11T02:17:29.989Z,58.95
2016-05-11T02:18:30.258Z,59.15
2016-05-11T02:19:30.542Z,58.57
2016-05-11T02:20:30.482Z,58.86
2016-05-11T02:21:30.000Z,58.95
2016-05-11T02:22:29.894Z,58.76
2016-05-11T02:23:29.849Z,59.05
2016-05-11T02:24:30.008Z,59.05
2016-05-11T02:25:29.854Z,59.82
2016-05-11T02:26:30.467Z,59.31
2016-05-11T02:27:29.782Z,59.82
2016-05-11T02:28:29.848Z,59.69
2016-05-11T02:29:29.818Z,59.5
2016-05-11T02:30:29.790Z,59.5
2016-05-11T02:31:29.996Z,59.63
2016-05-11T02:32:29.687Z,59.41
2016-05-11T02:33:29.736Z,59.69
2016-05-11T02:34:29.614Z,59.5
2016-05-11T02:35:29.428Z,59.6
2016-05-11T02:36:29.759Z,59.5
2016-05-11T02:37:29.762Z,59.12
2016-05-11T02:38:29.968Z,59.12
2016-05-11T02:39:29.565Z,59.41
2016-05-11T02:40:29.708Z,59.6
2016-05-11T02:41:29.570Z,59.31
2016-05-11T02:42:29.713Z,59.31
2016-05-11T02:43:29.434Z,59.79
2016-05-11T02:44:29.436Z,59.69
2016-05-11T02:45:29.425Z,59.89
2016-05-11T02:46:29.771Z,59.79
2016-05-11T02:47:29.430Z,59.69
2016-05-11T02:48:29.370Z,59.69
2016-05-11T02:49:29.372Z,59.79
2016-05-11T02:50:29.328Z,59.6
2016-05-11T02:51:29.347Z,59.99
2016-05-11T02:52:29.255Z,59.89
2016-05-11T02:53:29.258Z,59.79
2016-05-11T02:54:29.246Z,59.69
2016-05-11T02:55:29.216Z,59.5
2016-05-11T02:56:29.219Z,59.89
2016-05-11T02:57:29.175Z,59.69
2016-05-11T02:58:29.163Z,59.79
2016-05-11T02:59:29.416Z,59.89
2016-05-11T03:00:29.262Z,59.89
2016-05-11T03:01:29.201Z,59.89
2016-05-11T03:02:29.079Z,59.79
2016-05-11T03:03:29.144Z,59.79
2016-05-11T03:04:29.069Z,59.89
2016-05-11T03:05:29.041Z,59.6
2016-05-11T03:06:29.418Z,59.89
2016-05-11T03:07:28.874Z,59.86
2016-05-11T03:08:28.955Z,59.41
2016-05-11T03:09:28.817Z,59.47
2016-05-11T03:10:28.975Z,59.79
2016-05-11T03:11:29.244Z,59.79
2016-05-11T03:12:28.887Z,59.69
2016-05-11T03:13:28.922Z,59.79
2016-05-11T03:14:29.408Z,59.79
2016-05-11T03:15:29.333Z,59.5
2016-05-11T03:16:28.852Z,59.79
2016-05-11T03:17:28.636Z,59.79
2016-05-11T03:18:28.607Z,59.66
2016-05-11T03:19:28.719Z,59.79
2016-05-11T03:20:28.768Z,59.86
2016-05-11T03:21:28.740Z,59.79
2016-05-11T03:22:28.711Z,59.89
2016-05-11T03:23:28.838Z,59.6
2016-05-11T03:24:28.698Z,59.47
2016-05-11T03:25:28.655Z,59.95
2016-05-11T03:26:28.626Z,59.99
2016-05-11T03:27:28.457Z,59.79
2016-05-11T03:28:28.397Z,59.89
2016-05-11T03:29:28.821Z,59.76
2016-05-11T03:30:28.761Z,59.57
2016-05-11T03:31:28.849Z,59.89
2016-05-11T03:32:28.516Z,59.38
2016-05-11T03:33:28.667Z,59.38
2016-05-11T03:34:28.569Z,59.66
2016-05-11T03:35:29.002Z,59.79
2016-05-11T03:36:29.401Z,59.89
2016-05-11T03:37:28.448Z,59.66
2016-05-11T03:38:28.605Z,59.79
2016-05-11T03:39:28.638Z,59.89
2016-05-11T03:40:28.874Z,59.76
2016-05-11T03:41:28.936Z,59.89
2016-05-11T03:42:28.584Z,59.99
2016-05-11T03:43:28.560Z,59.5
2016-05-11T03:44:28.568Z,59.6
2016-05-11T03:45:28.795Z,59.57
2016-05-11T03:46:28.536Z,59.6
2016-05-11T03:47:28.354Z,59.76
2016-05-11T03:48:29.123Z,59.57
2016-05-11T03:49:28.549Z,59.86
2016-05-11T03:50:28.429Z,59.47
2016-05-11T03:51:28.418Z,59.5
2016-05-11T03:52:28.389Z,59.79
2016-05-11T03:53:28.378Z,59.95
2016-05-11T03:54:28.365Z,59.66
2016-05-11T03:55:28.384Z,59.57
2016-05-11T03:56:42.343Z,59.76
2016-05-11T03:57:28.327Z,59.86
2016-05-11T03:58:28.299Z,59.76
2016-05-11T03:59:28.364Z,59.79
2016-05-11T04:00:28.570Z,59.99
2016-05-11T04:01:31.530Z,59.41
2016-05-11T04:02:28.311Z,59.09
2016-05-11T04:03:28.189Z,59.69
2016-05-11T04:04:28.207Z,59.47
2016-05-11T04:05:28.928Z,59.41
2016-05-11T04:06:28.290Z,59.76
2016-05-11T04:07:28.261Z,59.76
2016-05-11T04:08:28.734Z,59.89
2016-05-11T04:09:28.486Z,59.86
2016-05-11T04:10:28.130Z,59.76
2016-05-11T04:11:28.007Z,59.69
2016-05-11T04:12:27.852Z,59.79
2016-05-11T04:13:27.996Z,59.5
2016-05-11T04:14:28.063Z,59.6
2016-05-11T04:15:28.002Z,59.76
2016-05-11T04:16:28.036Z,59.76
2016-05-11T04:17:28.085Z,59.76
2016-05-11T04:18:28.229Z,59.66
2016-05-11T04:19:28.263Z,59.95
2016-05-11T04:20:28.796Z,59.66
2016-05-11T04:21:28.268Z,59.76
2016-05-11T04:22:28.177Z,59.76
2016-05-11T04:23:28.211Z,59.86
2016-05-11T04:24:28.120Z,59.76
2016-05-11T04:25:31.016Z,59.86
2016-05-11T04:26:28.329Z,59.95
2016-05-11T04:27:28.348Z,59.76
2016-05-11T04:28:28.287Z,59.76
2016-05-11T04:29:28.009Z,59.76
2016-05-11T04:30:41.420Z,59.47
2016-05-11T04:31:28.076Z,59.28
2016-05-11T04:32:28.406Z,59.76
2016-05-11T04:33:28.035Z,59.38
2016-05-11T04:34:28.553Z,59.28
2016-05-11T04:35:28.586Z,59.66
2016-05-11T04:36:41.280Z,59.57
2016-05-11T04:37:41.266Z,60.05
2016-05-11T04:38:28.297Z,59.95
2016-05-11T04:39:28.770Z,59.95
2016-05-11T04:40:27.991Z,59.76
2016-05-11T04:41:41.184Z,59.47
2016-05-11T04:42:41.671Z,59.76
2016-05-11T04:43:41.143Z,59.28
2016-05-11T04:44:28.033Z,59.76
2016-05-11T04:45:28.130Z,59.47
2016-05-11T04:46:28.210Z,59.5
2016-05-11T04:47:28.369Z,59.28
2016-05-11T04:48:27.841Z,59.76
2016-05-11T04:49:27.874Z,59.69
2016-05-11T04:50:28.002Z,59.89
2016-05-11T04:51:27.990Z,59.41
2016-05-11T04:52:40.979Z,59.6
2016-05-11T04:53:40.935Z,59.57
2016-05-11T04:54:40.953Z,59.69
2016-05-11T04:55:41.051Z,59.66
2016-05-11T04:56:41.114Z,59.79
2016-05-11T04:57:28.739Z,59.69
2016-05-11T04:58:30.243Z,59.47
2016-05-11T04:59:28.495Z,59.66
2016-05-11T05:00:28.404Z,59.95
2016-05-11T05:01:28.625Z,59.5
2016-05-11T05:02:27.488Z,59.76
2016-05-11T05:03:27.506Z,59.76
2016-05-11T05:04:27.978Z,59.5
2016-05-11T05:05:27.887Z,59.76
2016-05-11T05:06:27.748Z,59.76
2016-05-11T05:07:28.033Z,59.57
2016-05-11T05:08:27.707Z,59.79
2016-05-11T05:09:27.381Z,59.76
2016-05-11T05:10:27.353Z,59.6
2016-05-11T05:11:27.934Z,59.79
2016-05-11T05:12:26.827Z,59.79
2016-05-11T05:13:26.736Z,59.5
2016-05-11T05:14:26.833Z,59.79
2016-05-11T05:15:26.913Z,59.69
2016-05-11T05:16:26.760Z,59.69
2016-05-11T05:17:27.310Z,59.69
2016-05-11T05:18:27.452Z,59.99
2016-05-11T05:19:27.362Z,59.89
2016-05-11T05:20:27.130Z,59.5
2016-05-11T05:21:26.851Z,59.79
2016-05-11T05:22:26.791Z,59.69
2016-05-11T05:23:26.888Z,59.69
2016-05-11T05:24:26.968Z,59.69
2016-05-11T05:25:26.800Z,59.5
2016-05-11T05:26:27.020Z,59.69
2016-05-11T05:27:26.899Z,59.6
2016-05-11T05:28:26.761Z,59.6
2016-05-11T05:29:26.998Z,59.69
2016-05-11T05:30:27.641Z,59.69
2016-05-11T05:31:27.332Z,59.69
2016-05-11T05:32:26.662Z,59.69
2016-05-11T05:33:26.728Z,59.69
2016-05-11T05:34:26.793Z,59.6
2016-05-11T05:35:26.686Z,59.69
2016-05-11T05:36:27.204Z,59.99
2016-05-11T05:37:26.816Z,59.79
2016-05-11T05:38:26.647Z,59.89
2016-05-11T05:39:26.603Z,59.89
2016-05-11T05:40:26.700Z,59.89
2016-05-11T05:41:26.796Z,59.89
2016-05-11T05:42:26.595Z,59.5
2016-05-11T05:43:26.817Z,59.63
2016-05-11T05:44:26.554Z,59.44
2016-05-11T05:45:26.744Z,59.99
2016-05-11T05:46:26.841Z,59.89
2016-05-11T05:47:26.671Z,59.92
2016-05-11T05:48:26.768Z,59.53
2016-05-11T05:49:26.599Z,59.44
2016-05-11T05:50:26.352Z,59.72
2016-05-11T05:51:26.885Z,59.72
2016-05-11T05:52:25.857Z,60.01
2016-05-11T05:53:25.999Z,59.53
2016-05-11T05:54:26.065Z,59.82
2016-05-11T05:55:26.037Z,59.82
2016-05-11T05:56:26.382Z,59.63
2016-05-11T05:57:26.073Z,59.63
2016-05-11T05:58:26.763Z,59.82
2016-05-11T05:59:25.875Z,59.82
2016-05-11T06:00:25.956Z,59.72
2016-05-11T06:01:25.834Z,60.04
2016-05-11T06:02:25.805Z,59.94
2016-05-11T06:03:25.668Z,59.75
2016-05-11T06:04:25.779Z,59.37
2016-05-11T06:05:25.986Z,59.75
2016-05-11T06:06:26.175Z,59.27
2016-05-11T06:07:26.631Z,59.27
2016-05-11T06:08:26.994Z,59.37
2016-05-11T06:09:25.746Z,59.27
2016-05-11T06:10:25.546Z,59.27
2016-05-11T06:11:25.658Z,59.17
2016-05-11T06:12:25.644Z,59.56
2016-05-11T06:13:25.601Z,59.56
2016-05-11T06:14:25.775Z,59.56
2016-05-11T06:15:25.606Z,59.56
2016-05-11T06:16:25.640Z,59.66
2016-05-11T06:17:25.564Z,59.75
2016-05-11T06:18:25.536Z,59.66
2016-05-11T06:19:31.241Z,59.66
2016-05-11T06:20:28.683Z,59.66
2016-05-11T06:21:27.731Z,59.56
2016-05-11T06:22:27.359Z,59.49
2016-05-11T06:23:25.800Z,59.49
2016-05-11T06:24:31.927Z,59.49
2016-05-11T06:25:26.132Z,59.69
2016-05-11T06:26:32.104Z,59.59
2016-05-11T06:27:25.341Z,59.49
2016-05-11T06:28:25.469Z,59.49
2016-05-11T06:29:25.301Z,59.88
2016-05-11T06:30:25.865Z,59.78
2016-05-11T06:31:25.556Z,59.97
2016-05-11T06:32:25.354Z,59.97
2016-05-11T06:33:25.390Z,59.4
2016-05-11T06:34:25.501Z,59.91
2016-05-11T06:35:25.473Z,59.49
2016-05-11T06:36:25.195Z,59.14
2016-05-11T06:37:25.134Z,59.04
2016-05-11T06:38:25.653Z,59.04
2016-05-11T06:39:25.186Z,59.14
2016-05-11T06:40:28.361Z,58.95
2016-05-11T06:41:25.973Z,58.85
2016-05-11T06:42:25.303Z,58.95
2016-05-11T06:43:25.119Z,58.85
2016-05-11T06:44:25.480Z,59.14
2016-05-11T06:45:24.874Z,59.14
2016-05-11T06:46:24.878Z,59.14
2016-05-11T06:47:25.286Z,59.52
2016-05-11T06:48:25.180Z,58.95
2016-05-11T06:49:24.916Z,59.14
2016-05-11T06:50:25.013Z,59.14
2016-05-11T06:51:25.188Z,59.43
2016-05-11T06:52:25.143Z,59.72
2016-05-11T06:53:24.974Z,59.43
2016-05-11T06:54:25.321Z,59.14
2016-05-11T06:55:25.416Z,58.95
2016-05-11T06:57:24.797Z,59.27
2016-05-11T06:58:25.799Z,59.04
2016-05-11T06:59:25.021Z,58.88
2016-05-11T07:00:25.134Z,58.88
2016-05-11T07:01:25.683Z,58.85
2016-05-11T07:02:25.655Z,58.78
2016-05-11T07:03:25.203Z,58.88
2016-05-11T07:04:25.285Z,59.07
2016-05-11T07:05:25.054Z,58.97
2016-05-11T07:06:25.368Z,58.78
2016-05-11T07:07:25.590Z,58.78
2016-05-11T07:08:24.889Z,58.78
2016-05-11T07:09:25.361Z,58.97
2016-05-11T07:10:24.895Z,58.88
2016-05-11T07:11:25.272Z,59.17
2016-05-11T07:12:25.087Z,58.69
2016-05-11T07:14:24.937Z,58.49
2016-05-11T07:15:25.580Z,58.69
2016-05-11T07:16:25.223Z,58.69
2016-05-11T07:17:25.272Z,58.49
2016-05-11T07:18:25.416Z,58.52
2016-05-11T07:19:24.669Z,58.91
2016-05-11T07:20:24.749Z,58.59
2016-05-11T07:21:25.549Z,58.72
2016-05-11T07:23:25.257Z,58.62
2016-05-11T07:24:25.323Z,58.81
2016-05-11T07:26:25.265Z,58.23
2016-05-11T07:29:25.555Z,58.33
2016-05-11T07:30:24.745Z,58.23
2016-05-11T07:31:24.779Z,58.42
2016-05-11T07:36:25.559Z,58.62
2016-05-11T07:37:24.529Z,58.36
2016-05-11T07:38:25.079Z,58.33
2016-05-11T07:39:24.973Z,58.26
2016-05-11T07:40:25.476Z,58.36
2016-05-11T07:41:25.462Z,57.97
2016-05-11T07:42:26.028Z,57.78
2016-05-11T07:43:24.234Z,57.87
2016-05-11T07:44:24.189Z,57.97
2016-05-11T07:45:23.770Z,57.87
2016-05-11T07:46:24.211Z,57.87
2016-05-11T07:47:24.401Z,57.78
2016-05-11T07:48:23.903Z,57.78
2016-05-11T07:49:23.656Z,57.68
2016-05-11T07:50:23.877Z,57.68
2016-05-11T07:51:23.833Z,57.49
2016-05-11T07:52:24.366Z,57.68
2016-05-11T07:53:23.744Z,58.07
2016-05-11T07:54:23.733Z,57.87
2016-05-11T07:55:23.688Z,57.49
2016-05-11T07:56:23.691Z,58.17
2016-05-11T07:57:23.677Z,57.59
2016-05-11T07:58:25.929Z,57.39
2016-05-11T07:59:25.261Z,57.42
2016-05-11T08:00:24.030Z,57.39
2016-05-11T08:01:23.735Z,57.23
2016-05-11T08:02:24.551Z,57.62
2016-05-11T08:03:24.178Z,57.52
2016-05-11T08:04:23.649Z,57.71
2016-05-11T08:05:23.402Z,57.62
2016-05-11T08:06:23.687Z,57.81
2016-05-11T08:07:23.579Z,57.52
2016-05-11T08:08:23.488Z,57.14
2016-05-11T08:09:23.272Z,56.94
2016-05-11T08:10:23.556Z,57.32
2016-05-11T08:11:23.575Z,57.04
2016-05-11T08:12:23.734Z,57.14
2016-05-11T08:13:23.439Z,57.04
2016-05-11T08:14:26.145Z,57.14
2016-05-11T08:15:23.336Z,57.04
2016-05-11T08:16:23.306Z,56.94
2016-05-11T08:17:23.231Z,56.94
2016-05-11T08:18:23.375Z,56.94
2016-05-11T08:19:23.252Z,56.94
2016-05-11T08:20:23.552Z,56.46
2016-05-11T08:21:23.445Z,56.58
2016-05-11T08:22:23.104Z,57.16
2016-05-11T08:23:23.372Z,57.06
2016-05-11T08:24:23.203Z,56.68
2016-05-11T08:25:23.159Z,56.68
2016-05-11T08:26:23.177Z,57.16
2016-05-11T08:27:23.321Z,56.48
2016-05-11T08:28:24.261Z,56.77
2016-05-11T08:29:23.013Z,56.58
2016-05-11T08:30:23.485Z,56.39
2016-05-11T08:31:23.113Z,56.39
2016-05-11T08:32:23.334Z,56.29
2016-05-11T08:33:23.165Z,56.48
2016-05-11T08:34:23.496Z,56.39
2016-05-11T08:35:23.060Z,56.39
2016-05-11T08:36:23.188Z,56.32
2016-05-11T08:37:23.723Z,56.1
2016-05-11T08:38:23.037Z,56.41
2016-05-11T08:39:23.040Z,56.32
2016-05-11T08:40:23.153Z,55.83
2016-05-11T08:41:22.859Z,55.93
2016-05-11T08:42:23.298Z,56.13
2016-05-11T08:43:22.817Z,55.93
2016-05-11T08:44:22.820Z,55.93
2016-05-11T08:45:22.884Z,55.93
2016-05-11T08:46:22.794Z,55.83
2016-05-11T08:47:22.781Z,56.03
2016-05-11T08:48:22.736Z,56.32
2016-05-11T08:49:23.537Z,56.03
2016-05-11T08:50:22.851Z,55.83
2016-05-11T08:51:23.338Z,55.65
2016-05-11T08:52:23.013Z,55.74
2016-05-11T08:53:22.672Z,56.03
2016-05-11T08:54:22.783Z,56.03
2016-05-11T08:55:22.693Z,55.35
2016-05-11T08:56:23.086Z,55.26
2016-05-11T08:57:22.949Z,55.74
2016-05-11T08:58:22.747Z,55.74
2016-05-11T08:59:22.922Z,55.74
2016-05-11T09:00:23.457Z,55.74
2016-05-11T09:01:22.646Z,55.74
2016-05-11T09:02:22.540Z,55.65
2016-05-11T09:03:22.621Z,55.67
2016-05-11T09:04:22.530Z,55.47
2016-05-11T09:05:22.626Z,55.67
2016-05-11T09:06:23.675Z,55.38
2016-05-11T09:07:22.694Z,55.87
2016-05-11T09:08:23.290Z,55.29
2016-05-11T09:09:22.464Z,55.09
2016-05-11T09:10:22.796Z,54.61
2016-05-11T09:11:22.798Z,54.9
2016-05-11T09:12:22.410Z,54.71
2016-05-11T09:13:22.304Z,54.99
2016-05-11T09:14:22.494Z,54.71
2016-05-11T09:15:22.309Z,54.9
2016-05-11T09:16:22.358Z,54.99
2016-05-11T09:17:23.127Z,54.9
2016-05-11T09:18:22.567Z,54.71
2016-05-11T09:19:22.772Z,54.71
2016-05-11T09:20:22.307Z,54.71
2016-05-11T09:21:22.419Z,54.93
2016-05-11T09:22:22.203Z,54.8
2016-05-11T09:23:22.534Z,54.9
2016-05-11T09:24:22.146Z,54.9
2016-05-11T09:25:22.211Z,55.02
2016-05-11T09:26:22.105Z,54.44
2016-05-11T09:27:22.075Z,54.63
2016-05-11T09:28:22.078Z,54.53
2016-05-11T09:29:22.050Z,54.35
2016-05-11T09:30:22.880Z,54.25
2016-05-11T09:31:22.071Z,54.44
2016-05-11T09:32:22.464Z,54.35
2016-05-11T09:33:22.091Z,54.53
2016-05-11T09:34:22.157Z,54.53
2016-05-11T09:35:21.801Z,54.53
2016-05-11T09:36:22.053Z,54.63
2016-05-11T09:37:22.868Z,54.44
2016-05-11T09:38:22.354Z,54.44
2016-05-11T09:39:22.077Z,54.05
2016-05-11T09:40:23.158Z,54.15
2016-05-11T09:41:22.176Z,54.53
2016-05-11T09:42:21.898Z,54.53
2016-05-11T09:43:21.900Z,53.96
2016-05-11T09:44:21.793Z,53.86
2016-05-11T09:45:23.233Z,54.25
2016-05-11T09:47:22.520Z,54.15
2016-05-11T09:48:21.836Z,54.25
2016-05-11T09:49:22.041Z,54.25
2016-05-11T09:50:21.966Z,54.37
2016-05-11T09:51:22.219Z,54.05
2016-05-11T09:53:21.974Z,54.25
2016-05-11T09:54:21.617Z,54.25
2016-05-11T09:55:21.572Z,53.96
2016-05-11T09:56:22.075Z,54.15
2016-05-11T09:57:21.844Z,54.25
2016-05-11T09:58:21.753Z,53.77
2016-05-11T09:59:21.615Z,54.17
2016-05-11T10:00:22.289Z,53.79
2016-05-11T10:01:21.776Z,53.86
2016-05-11T10:02:21.482Z,53.86
2016-05-11T10:03:21.485Z,53.89
2016-05-11T10:04:21.409Z,53.99
2016-05-11T10:05:21.288Z,53.69
2016-05-11T10:06:21.321Z,53.79
2016-05-11T10:07:21.355Z,53.69
2016-05-11T10:08:21.468Z,53.59
2016-05-11T10:09:21.392Z,53.69
2016-05-11T10:10:21.348Z,53.99
2016-05-11T10:11:22.507Z,53.89
2016-05-11T10:12:21.493Z,53.89
2016-05-11T10:13:21.262Z,53.99
2016-05-11T10:14:21.281Z,53.99
2016-05-11T10:15:21.251Z,53.79
2016-05-11T10:16:25.348Z,53.21
2016-05-11T10:17:21.179Z,53.31
2016-05-11T10:18:21.025Z,53.21
2016-05-11T10:19:21.029Z,53.41
2016-05-11T10:20:21.172Z,53.31
2016-05-11T10:21:21.221Z,53.02
2016-05-11T10:22:21.505Z,53.11
2016-05-11T10:23:21.257Z,53.11
2016-05-11T10:24:21.073Z,52.85
2016-05-11T10:25:20.950Z,53.04
2016-05-11T10:26:21.125Z,52.85
2016-05-11T10:27:21.034Z,52.66
2016-05-11T10:28:21.318Z,52.75
2016-05-11T10:29:21.086Z,52.66
2016-05-11T10:30:20.995Z,52.85
2016-05-11T10:32:43.486Z,52.66
2016-05-11T10:32:58.253Z,52.56
2016-05-11T10:33:58.444Z,52.85
2016-05-11T10:34:58.274Z,52.46
2016-05-11T10:35:58.450Z,52.36
2016-05-11T10:36:58.342Z,52.46
2016-05-11T10:37:58.408Z,52.46
2016-05-11T10:38:58.801Z,52.46
2016-05-11T10:39:58.163Z,52.46
2016-05-11T10:40:58.354Z,52.46
2016-05-11T10:41:58.294Z,52.56
2016-05-11T10:42:58.296Z,52.75
2016-05-11T10:43:58.439Z,52.36
2016-05-11T10:44:58.192Z,52.36
2016-05-11T10:45:58.726Z,52.46
2016-05-11T10:46:58.212Z,52.36
2016-05-11T10:47:58.184Z,52.75
2016-05-11T10:48:58.781Z,52.56
2016-05-11T10:49:58.143Z,52.97
2016-05-11T10:50:58.130Z,52.2
2016-05-11T10:51:58.539Z,52.39
2016-05-11T10:52:58.104Z,52.49
2016-05-11T10:54:01.060Z,52.29
2016-05-11T10:54:58.625Z,52
2016-05-11T10:55:58.206Z,52.2
2016-05-11T10:56:57.880Z,52.2
2016-05-11T10:57:57.930Z,52.1
2016-05-11T10:58:58.198Z,52.39
2016-05-11T10:59:58.014Z,52.39
2016-05-11T11:00:58.141Z,52.29
2016-05-11T11:01:58.035Z,52.29
2016-05-11T11:02:58.006Z,52.2
2016-05-11T11:03:59.166Z,51.9
2016-05-11T11:04:57.886Z,52.2
2016-05-11T11:05:57.874Z,52.1
2016-05-11T11:06:57.830Z,52.2
2016-05-11T11:07:58.301Z,52.1
2016-05-11T11:08:58.366Z,51.9
2016-05-11T11:09:58.040Z,51.81
2016-05-11T11:10:57.810Z,51.62
2016-05-11T11:11:57.968Z,51.72
2016-05-11T11:12:57.814Z,51.04
2016-05-11T11:13:59.052Z,51.23
2016-05-11T11:14:58.413Z,51.32
2016-05-11T11:15:57.978Z,51.13
2016-05-11T11:16:57.746Z,51.23
2016-05-11T11:17:57.750Z,51.52
2016-05-11T11:18:58.456Z,51.13
2016-05-11T11:19:57.739Z,51.72
2016-05-11T11:20:58.024Z,51.52
2016-05-11T11:21:58.807Z,51.23
2016-05-11T11:22:57.682Z,51.32
2016-05-11T11:23:59.484Z,51.52
2016-05-11T11:24:57.594Z,51.42
2016-05-11T11:25:57.534Z,51.04
2016-05-11T11:26:57.568Z,50.94
2016-05-11T11:27:57.508Z,51.04
2016-05-11T11:28:58.029Z,50.94
2016-05-11T11:29:57.748Z,50.94
2016-05-11T11:30:57.641Z,51.04
2016-05-11T11:31:57.959Z,51.04
2016-05-11T11:32:57.459Z,51.04
2016-05-11T11:33:58.011Z,51.23
2016-05-11T11:34:58.577Z,51.42
2016-05-11T11:35:57.467Z,51.25
2016-05-11T11:36:57.407Z,51.06
2016-05-11T11:37:57.894Z,50.87
2016-05-11T11:38:58.868Z,50.55
2016-05-11T11:39:57.305Z,50.77
2016-05-11T11:40:58.093Z,50.48
2016-05-11T11:41:57.436Z,50.29
2016-05-11T11:42:57.268Z,50.48
2016-05-11T11:43:57.957Z,50.29
2016-05-11T11:44:57.210Z,50.38
2016-05-11T11:45:57.869Z,50.48
2016-05-11T11:46:57.185Z,50.48
2016-05-11T11:47:57.046Z,49.9
2016-05-11T11:48:57.174Z,49.9
2016-05-11T11:49:57.162Z,49.82
2016-05-11T11:50:57.148Z,49.54
2016-05-11T11:51:57.369Z,49.44
2016-05-11T11:52:57.076Z,49.54
2016-05-11T11:53:57.109Z,49.56
2016-05-11T11:54:57.050Z,49.66
2016-05-11T11:55:57.067Z,49.56
2016-05-11T11:56:57.056Z,49.46
2016-05-11T11:57:57.120Z,49.17
2016-05-11T11:58:58.435Z,49.27
2016-05-11T11:59:58.157Z,48.88
2016-05-11T12:00:57.379Z,49.17
2016-05-11T12:01:57.303Z,48.78
2016-05-11T12:02:57.102Z,47.81
2016-05-11T12:03:57.074Z,47.08
2016-05-11T12:04:56.998Z,47.3
2016-05-11T12:05:57.969Z,47.3
2016-05-11T12:06:57.066Z,46.5
2016-05-11T12:07:56.850Z,46.14
2016-05-11T12:08:56.822Z,44.6
2016-05-11T12:09:56.933Z,44.55
2016-05-11T12:10:56.780Z,44.35
2016-05-11T12:11:56.783Z,44.38
2016-05-11T12:12:56.630Z,44.65
2016-05-11T12:13:56.757Z,45.14
2016-05-11T12:14:56.760Z,45.14
2016-05-11T12:15:57.324Z,45.72
2016-05-11T12:16:56.718Z,45.91
2016-05-11T12:17:56.862Z,45.89
2016-05-11T12:18:56.707Z,46.37
2016-05-11T12:19:56.695Z,46.57
2016-05-11T12:20:56.651Z,46.47
2016-05-11T12:21:56.826Z,46.47
2016-05-11T12:22:56.812Z,46.57
2016-05-11T12:23:56.596Z,46.57
2016-05-11T12:24:57.006Z,46.28
2016-05-11T12:25:57.383Z,45.62
2016-05-11T12:26:57.104Z,43.11
2016-05-11T12:27:56.607Z,42.4
2016-05-11T12:28:56.470Z,42.98
2016-05-11T12:29:56.628Z,41.89
2016-05-11T12:30:56.615Z,40.58
2016-05-11T12:31:57.274Z,41.19
2016-05-11T12:32:56.714Z,40.5
2016-05-11T12:33:56.858Z,37.73
2016-05-11T12:34:56.563Z,38.84
2016-05-11T12:35:56.441Z,39.67
2016-05-11T12:36:56.413Z,40.45
2016-05-11T12:37:56.831Z,41.58
2016-05-11T12:38:56.991Z,42.34
2016-05-11T12:39:56.744Z,43.1
2016-05-11T12:40:56.434Z,41.13
2016-05-11T12:41:56.594Z,41.31
2016-05-11T12:42:56.799Z,42.41
2016-05-11T12:43:56.615Z,43.27
2016-05-11T12:44:56.494Z,43.44
2016-05-11T12:45:56.639Z,44.23
2016-05-11T12:46:56.862Z,44.4
2016-05-11T12:47:56.891Z,44.28
2016-05-11T12:48:56.712Z,44.57
2016-05-11T12:49:56.409Z,44.55
2016-05-11T12:50:56.996Z,43.77
2016-05-11T12:51:56.411Z,42.04
2016-05-11T12:52:56.979Z,40.81
2016-05-11T12:53:56.516Z,41.15
2016-05-11T12:54:56.582Z,40.86
2016-05-11T12:55:56.525Z,40.93
2016-05-11T12:56:56.920Z,41.42
2016-05-11T12:57:56.470Z,42.18
2016-05-11T12:58:56.537Z,42.55
2016-05-11T12:59:56.447Z,42.84
2016-05-11T13:00:56.935Z,43.13
2016-05-11T13:01:56.438Z,43.6
2016-05-11T13:02:57.098Z,43.87
2016-05-11T13:03:56.804Z,43.87
2016-05-11T13:04:56.354Z,44.06
2016-05-11T13:05:56.357Z,44.16
2016-05-11T13:06:56.938Z,44.26
2016-05-11T13:07:56.378Z,44.06